createdAt,value
2018-04-15T00:00:42.182Z,11.50
2018-04-15T00:03:08.432Z,11.60
2018-04-15T00:05:34.537Z,11.60
2018-04-15T00:08:00.635Z,11.50
2018-04-15T00:10:27.658Z,11.50
2018-04-15T00:12:53.756Z,11.60
2018-04-15T00:15:19.841Z,11.50
2018-04-15T00:17:46.737Z,11.50
2018-04-15T00:20:12.907Z,11.40
2018-04-15T00:22:38.998Z,11.50
2018-04-15T00:25:05.065Z,11.50
2018-04-15T00:27:31.182Z,11.40
2018-04-15T00:29:57.494Z,11.40
2018-04-15T00:32:24.522Z,11.20
2018-04-15T00:34:51.011Z,11.20
2018-04-15T00:37:17.538Z,11.10
2018-04-15T00:39:44.111Z,11.10
2018-04-15T00:42:10.305Z,11.10
2018-04-15T00:44:36.399Z,11.00
2018-04-15T00:47:02.538Z,11.00
2018-04-15T00:49:28.694Z,11.00
2018-04-15T00:51:54.849Z,11.00
2018-04-15T00:54:20.957Z,10.90
2018-04-15T00:56:47.080Z,10.80
2018-04-15T00:59:13.215Z,10.80
2018-04-15T01:01:39.367Z,10.80
2018-04-15T01:04:05.827Z,10.90
2018-04-15T01:06:31.948Z,10.80
2018-04-15T01:08:58.050Z,10.80
2018-04-15T01:11:24.141Z,10.80
2018-04-15T01:13:50.205Z,10.80
2018-04-15T01:16:17.168Z,10.80
2018-04-15T01:18:43.271Z,10.70
2018-04-15T01:21:09.393Z,10.60
2018-04-15T01:23:35.469Z,10.40
2018-04-15T01:26:01.566Z,10.40
2018-04-15T01:28:27.744Z,10.30
2018-04-15T01:30:53.813Z,10.30
2018-04-15T01:33:19.902Z,10.20
2018-04-15T01:35:45.985Z,10.30
2018-04-15T01:38:12.063Z,10.30
2018-04-15T01:40:38.160Z,10.30
2018-04-15T01:43:04.227Z,10.40
2018-04-15T01:45:30.307Z,10.40
2018-04-15T01:47:56.524Z,10.30
2018-04-15T01:50:22.592Z,10.40
2018-04-15T01:52:48.654Z,10.30
2018-04-15T01:55:15.763Z,10.30
2018-04-15T01:57:41.844Z,10.30
2018-04-15T02:00:07.946Z,10.30
2018-04-15T02:02:34.035Z,10.30
2018-04-15T02:05:00.856Z,10.20
2018-04-15T02:07:26.931Z,10.20
2018-04-15T02:09:53.835Z,10.20
2018-04-15T02:12:20.172Z,10.10
2018-04-15T02:14:46.269Z,10.30
2018-04-15T02:17:13.174Z,10.40
2018-04-15T02:19:39.287Z,10.40
2018-04-15T02:22:05.415Z,10.40
2018-04-15T02:24:31.611Z,10.40
2018-04-15T02:26:58.296Z,10.40
2018-04-15T02:29:24.432Z,10.40
2018-04-15T02:31:51.326Z,10.40
2018-04-15T02:34:17.450Z,10.40
2018-04-15T02:36:43.510Z,10.40
2018-04-15T02:39:09.640Z,10.40
2018-04-15T02:41:35.735Z,10.40
2018-04-15T02:44:02.608Z,10.40
2018-04-15T02:46:28.699Z,10.40
2018-04-15T02:48:54.783Z,10.40
2018-04-15T02:51:20.867Z,10.40
2018-04-15T02:53:46.958Z,10.40
2018-04-15T02:56:13.092Z,10.30
2018-04-15T02:58:39.160Z,10.30
2018-04-15T03:01:05.282Z,10.30
2018-04-15T03:03:31.354Z,10.30
2018-04-15T03:05:57.557Z,10.30
2018-04-15T03:08:23.676Z,10.40
2018-04-15T03:10:50.154Z,10.50
2018-04-15T03:13:16.251Z,10.50
2018-04-15T03:15:42.444Z,10.50
2018-04-15T03:18:08.543Z,10.60
2018-04-15T03:20:34.661Z,10.60
2018-04-15T03:23:01.526Z,10.70
2018-04-15T03:25:28.343Z,10.70
2018-04-15T03:27:54.446Z,10.60
2018-04-15T03:30:20.555Z,10.60
2018-04-15T03:32:47.430Z,10.70
2018-04-15T03:35:13.549Z,10.70
2018-04-15T03:40:34.112Z,10.70
2018-04-15T03:43:00.270Z,10.60
2018-04-15T03:45:26.390Z,10.70
2018-04-15T03:47:52.480Z,10.70
2018-04-15T03:50:18.679Z,10.70
2018-04-15T03:52:44.767Z,10.60
2018-04-15T03:55:11.582Z,10.60
2018-04-15T03:57:37.696Z,10.50
2018-04-15T04:00:03.772Z,10.50
2018-04-15T04:02:29.906Z,10.60
2018-04-15T04:04:56.651Z,10.50
2018-04-15T04:07:22.755Z,10.50
2018-04-15T04:09:48.838Z,10.50
2018-04-15T04:12:14.950Z,10.50
2018-04-15T04:14:41.333Z,10.50
2018-04-15T04:17:07.408Z,10.50
2018-04-15T04:19:45.921Z,10.50
2018-04-15T04:22:24.295Z,10.50
2018-04-15T04:24:57.543Z,10.40
2018-04-15T04:27:24.424Z,10.30
2018-04-15T04:29:50.493Z,10.30
2018-04-15T04:32:17.656Z,10.30
2018-04-15T04:34:43.723Z,10.40
2018-04-15T04:37:09.802Z,10.40
2018-04-15T04:39:35.963Z,10.30
2018-04-15T04:42:02.067Z,10.40
2018-04-15T04:44:28.227Z,10.40
2018-04-15T04:46:54.375Z,10.40
2018-04-15T04:49:20.495Z,10.30
2018-04-15T04:51:46.751Z,10.30
2018-04-15T04:54:12.894Z,10.20
2018-04-15T04:56:39.020Z,10.20
2018-04-15T04:59:05.154Z,10.30
2018-04-15T05:01:31.272Z,10.30
2018-04-15T05:03:57.399Z,10.30
2018-04-15T05:06:24.280Z,10.60
2018-04-15T05:08:50.367Z,10.60
2018-04-15T05:11:16.462Z,10.80
2018-04-15T05:13:42.591Z,10.80
2018-04-15T05:16:08.695Z,10.80
2018-04-15T05:18:34.858Z,10.80
2018-04-15T05:21:01.011Z,10.90
2018-04-15T05:23:27.205Z,10.90
2018-04-15T05:25:53.366Z,10.80
2018-04-15T05:28:20.258Z,10.80
2018-04-15T05:30:46.470Z,10.70
2018-04-15T05:33:12.566Z,10.80
2018-04-15T05:35:38.679Z,10.80
2018-04-15T05:38:04.763Z,10.80
2018-04-15T05:40:31.630Z,10.90
2018-04-15T05:42:58.514Z,11.00
2018-04-15T05:45:24.668Z,11.00
2018-04-15T05:47:50.777Z,11.10
2018-04-15T05:50:16.938Z,11.00
2018-04-15T05:52:43.084Z,11.00
2018-04-15T05:55:09.207Z,11.10
2018-04-15T05:57:35.286Z,11.20
2018-04-15T06:00:01.392Z,11.20
2018-04-15T06:02:27.577Z,11.30
2018-04-15T06:04:53.763Z,11.30
2018-04-15T06:07:19.896Z,11.40
2018-04-15T06:09:46.021Z,11.60
2018-04-15T06:12:12.176Z,11.50
2018-04-15T06:14:38.307Z,11.70
2018-04-15T06:17:04.428Z,11.80
2018-04-15T06:19:31.253Z,12.00
2018-04-15T06:21:57.473Z,12.00
2018-04-15T06:24:23.538Z,12.20
2018-04-15T06:26:49.740Z,12.20
2018-04-15T06:29:15.855Z,12.00
2018-04-15T06:31:41.959Z,12.10
2018-04-15T06:34:08.799Z,12.00
2018-04-15T06:36:34.871Z,12.00
2018-04-15T06:39:01.818Z,12.20
2018-04-15T06:41:28.648Z,12.40
2018-04-15T06:43:54.734Z,12.40
2018-04-15T06:46:20.868Z,12.30
2018-04-15T06:48:47.019Z,12.50
2018-04-15T06:51:13.140Z,12.60
2018-04-15T06:53:39.252Z,12.70
2018-04-15T06:56:05.423Z,13.10
2018-04-15T06:58:31.503Z,13.40
2018-04-15T07:00:57.646Z,13.60
2018-04-15T07:03:23.757Z,14.30
2018-04-15T07:05:51.014Z,14.30
2018-04-15T07:08:17.227Z,14.50
2018-04-15T07:10:43.400Z,14.60
2018-04-15T07:13:09.507Z,14.80
2018-04-15T07:15:35.615Z,15.10
2018-04-15T07:18:02.775Z,15.20
2018-04-15T07:20:28.955Z,15.10
2018-04-15T07:22:55.083Z,15.50
2018-04-15T07:25:21.924Z,15.20
2018-04-15T07:27:48.841Z,15.60
2018-04-15T07:30:14.973Z,15.50
2018-04-15T07:32:41.172Z,15.60
2018-04-15T07:35:08.061Z,16.70
2018-04-15T07:37:34.219Z,16.70
2018-04-15T07:40:00.352Z,17.00
2018-04-15T07:42:26.543Z,17.20
2018-04-15T07:44:53.139Z,17.40
2018-04-15T07:47:19.251Z,17.90
2018-04-15T07:49:45.356Z,18.10
2018-04-15T07:52:12.216Z,17.80
2018-04-15T07:54:39.095Z,18.10
2018-04-15T07:57:05.242Z,18.00
2018-04-15T07:59:31.352Z,18.00
2018-04-15T08:01:58.218Z,18.60
2018-04-15T08:04:24.403Z,18.60
2018-04-15T08:06:50.563Z,18.60
2018-04-15T08:09:16.767Z,18.40
2018-04-15T08:11:42.856Z,18.00
2018-04-15T08:14:09.767Z,18.70
2018-04-15T08:16:35.904Z,18.60
2018-04-15T08:19:02.036Z,18.70
2018-04-15T08:21:28.211Z,19.30
2018-04-15T08:23:54.412Z,19.70
2018-04-15T08:26:20.511Z,19.80
2018-04-15T08:28:47.416Z,20.00
2018-04-15T08:31:14.511Z,20.00
2018-04-15T08:33:41.047Z,20.80
2018-04-15T08:36:07.327Z,20.70
2018-04-15T08:38:33.419Z,21.10
2018-04-15T08:40:59.565Z,21.50
2018-04-15T08:43:25.671Z,22.60
2018-04-15T08:45:51.823Z,22.70
2018-04-15T08:48:17.938Z,22.60
2018-04-15T08:50:44.063Z,24.00
2018-04-15T08:53:10.178Z,24.60
2018-04-15T08:55:37.083Z,26.10
2018-04-15T15:15:42.760Z,26.00
2018-04-15T15:18:08.913Z,25.20
2018-04-15T15:20:35.044Z,24.90
2018-04-15T15:23:01.147Z,24.90
2018-04-15T15:25:27.999Z,24.60
2018-04-15T15:27:54.872Z,24.60
2018-04-15T15:30:20.951Z,24.60
2018-04-15T15:32:47.104Z,24.50
2018-04-15T15:35:13.209Z,24.40
2018-04-15T15:37:39.321Z,24.10
2018-04-15T15:40:05.444Z,24.10
2018-04-15T15:42:31.623Z,24.20
2018-04-15T15:44:57.748Z,24.30
2018-04-15T15:47:23.898Z,24.00
2018-04-15T15:49:50.028Z,24.00
2018-04-15T15:52:16.153Z,23.90
2018-04-15T15:54:42.266Z,23.90
2018-04-15T15:57:09.095Z,24.10
2018-04-15T15:59:35.252Z,24.10
2018-04-15T16:02:01.407Z,24.10
2018-04-15T16:04:28.245Z,23.80
2018-04-15T16:06:54.342Z,23.70
2018-04-15T16:09:21.454Z,23.50
2018-04-15T16:11:48.324Z,23.50
2018-04-15T16:14:14.419Z,23.40
2018-04-15T16:16:40.527Z,23.50
2018-04-15T16:19:06.628Z,23.30
2018-04-15T16:21:33.468Z,23.30
2018-04-15T16:23:59.591Z,23.30
2018-04-15T16:26:25.692Z,23.10
2018-04-15T16:28:51.784Z,23.20
2018-04-15T16:31:17.904Z,23.20
2018-04-15T16:33:43.996Z,23.30
2018-04-15T16:36:10.102Z,23.30
2018-04-15T16:38:36.985Z,23.00
2018-04-15T16:41:03.123Z,23.00
2018-04-15T16:43:29.323Z,22.90
2018-04-15T16:45:55.407Z,22.90
2018-04-15T16:48:21.540Z,22.80
2018-04-15T16:50:47.679Z,22.80
2018-04-15T16:53:13.747Z,22.80
2018-04-15T16:55:39.958Z,22.80
2018-04-15T16:58:06.067Z,22.80
2018-04-15T17:00:32.142Z,22.70
2018-04-15T17:02:58.214Z,22.70
2018-04-15T17:05:25.765Z,22.50
2018-04-15T17:07:51.892Z,22.50
2018-04-15T17:10:17.988Z,22.40
2018-04-15T17:12:44.835Z,22.20
2018-04-15T17:15:10.923Z,22.10
2018-04-15T17:17:37.002Z,22.10
2018-04-15T17:20:03.138Z,22.00
2018-04-15T17:22:29.299Z,22.00
2018-04-15T17:24:55.378Z,21.90
2018-04-15T17:27:21.515Z,21.80
2018-04-15T17:29:47.615Z,21.80
2018-04-15T17:51:57.670Z,20.40
2018-04-15T17:54:23.776Z,20.40
2018-04-15T17:56:49.915Z,20.40
2018-04-15T17:59:16.006Z,20.30
2018-04-15T18:01:42.119Z,20.20
2018-04-15T18:04:08.259Z,20.20
2018-04-15T18:06:34.423Z,20.00
2018-04-15T18:09:00.532Z,19.90
2018-04-15T18:11:27.072Z,19.80
2018-04-15T18:13:53.308Z,19.70
2018-04-15T18:16:19.403Z,19.60
2018-04-15T18:18:46.254Z,19.50
2018-04-15T18:21:13.082Z,19.40
2018-04-15T18:23:39.169Z,19.40
2018-04-15T18:26:05.449Z,19.40
2018-04-15T18:28:31.573Z,19.20
2018-04-15T18:33:25.551Z,19.10
2018-04-15T18:35:51.671Z,18.90
2018-04-15T18:43:14.662Z,18.70
2018-04-15T18:45:40.831Z,18.70
2018-04-15T18:48:06.986Z,18.70
2018-04-15T18:50:33.899Z,18.70
2018-04-15T18:53:00.236Z,18.60
2018-04-15T18:55:26.503Z,18.60
2018-04-15T18:57:52.721Z,18.50
2018-04-15T19:00:18.908Z,18.50
2018-04-15T19:02:45.820Z,18.40
2018-04-15T19:05:11.969Z,18.40
2018-04-15T19:07:38.167Z,18.50
2018-04-15T19:10:04.305Z,18.40
2018-04-15T19:12:30.421Z,18.40
2018-04-15T19:14:57.334Z,18.30
2018-04-15T19:17:23.537Z,18.30
2018-04-15T19:19:49.731Z,18.40
2018-04-15T19:22:15.889Z,18.40
2018-04-15T19:24:42.736Z,18.40
2018-04-15T19:27:08.835Z,18.40
2018-04-15T19:29:34.961Z,18.30
2018-04-15T19:32:01.076Z,18.30
2018-04-15T19:34:28.247Z,18.10
2018-04-15T19:41:50.052Z,18.10
2018-04-15T19:44:16.209Z,18.10
2018-04-15T19:46:42.366Z,18.10
2018-04-15T19:49:08.460Z,18.00
2018-04-15T19:51:34.551Z,17.90
2018-04-15T19:54:00.662Z,17.90
2018-04-15T19:56:26.774Z,17.90
2018-04-15T19:58:52.892Z,17.90
2018-04-15T20:01:19.713Z,17.80
2018-04-15T20:03:45.795Z,17.80
2018-04-15T20:06:11.931Z,17.80
2018-04-15T20:08:38.080Z,17.90
2018-04-15T20:11:04.296Z,17.90
2018-04-15T20:13:30.461Z,18.00
2018-04-15T20:15:56.746Z,17.90
2018-04-15T20:18:22.924Z,17.90
2018-04-15T20:20:49.099Z,17.80
2018-04-15T20:23:15.203Z,17.70
2018-04-15T20:25:42.080Z,17.40
2018-04-15T20:28:08.512Z,17.40
2018-04-15T20:30:35.688Z,17.30
2018-04-15T20:33:02.191Z,17.30
2018-04-15T20:35:28.323Z,17.10
2018-04-15T20:37:54.456Z,17.00
2018-04-15T20:40:20.660Z,17.00
2018-04-15T20:42:47.199Z,17.00
2018-04-15T20:45:13.459Z,16.90
2018-04-15T20:47:39.656Z,16.80
2018-04-15T20:50:05.790Z,16.70
2018-04-15T20:52:31.884Z,16.60
2018-04-15T20:54:58.023Z,16.50
2018-04-15T20:57:25.002Z,16.40
2018-04-15T20:59:51.139Z,16.40
2018-04-15T21:02:17.244Z,16.30
2018-04-15T21:04:43.389Z,16.20
2018-04-15T21:07:09.523Z,16.20
2018-04-15T21:09:35.648Z,16.00
2018-04-15T21:12:01.783Z,15.90
2018-04-15T21:14:27.927Z,15.80
2018-04-15T21:16:54.067Z,15.80
2018-04-15T21:19:20.192Z,15.70
2018-04-15T21:21:46.297Z,15.70
2018-04-15T21:24:12.515Z,15.60
2018-04-15T21:26:38.694Z,15.60
2018-04-15T21:29:05.585Z,15.50
2018-04-15T21:31:31.675Z,15.40
2018-04-15T21:33:59.580Z,15.40
2018-04-15T21:36:25.741Z,15.40
2018-04-15T21:38:51.876Z,15.40
2018-04-15T21:41:18.017Z,15.40
2018-04-15T21:43:44.165Z,15.30
2018-04-15T21:46:10.426Z,15.30
2018-04-15T21:48:36.576Z,15.30
2018-04-15T21:51:03.650Z,15.30
2018-04-15T21:53:30.534Z,15.20
2018-04-15T21:55:56.695Z,15.20
2018-04-15T21:58:22.808Z,15.20
2018-04-15T22:00:48.960Z,15.10
2018-04-15T22:03:15.101Z,14.90
2018-04-15T22:05:41.289Z,14.90
2018-04-15T22:08:07.413Z,14.80
2018-04-15T22:10:33.520Z,14.80
2018-04-15T22:13:10.676Z,14.80
2018-04-15T22:15:37.525Z,14.60
2018-04-15T22:18:03.660Z,14.60
2018-04-15T22:20:30.023Z,14.60
2018-04-15T22:22:57.272Z,14.50
2018-04-15T22:25:23.808Z,14.40
2018-04-15T22:27:50.974Z,14.40
2018-04-15T22:30:18.195Z,14.30
2018-04-15T22:32:45.185Z,14.30
2018-04-15T22:35:12.324Z,14.30
2018-04-15T22:37:40.731Z,14.20
2018-04-15T22:40:06.843Z,14.30
2018-04-15T22:42:33.253Z,14.40
2018-04-15T22:44:59.399Z,14.20
2018-04-15T22:47:27.669Z,14.20
2018-04-15T22:49:59.747Z,14.20
2018-04-15T22:52:26.061Z,14.30
2018-04-15T22:55:00.659Z,14.30
2018-04-15T22:57:26.810Z,14.30
2018-04-15T22:59:53.034Z,14.20
2018-04-15T23:02:19.156Z,14.10
2018-04-15T23:04:45.411Z,14.10
2018-04-15T23:07:11.533Z,14.00
2018-04-15T23:09:37.870Z,14.00
2018-04-15T23:12:04.003Z,14.00
2018-04-15T23:14:31.026Z,14.00
2018-04-15T23:16:58.119Z,13.90
2018-04-15T23:19:24.236Z,13.90
2018-04-15T23:21:50.883Z,13.80
2018-04-15T23:24:17.895Z,13.90
2018-04-15T23:26:44.148Z,13.80
2018-04-15T23:29:10.395Z,13.80
2018-04-15T23:31:36.501Z,13.80
2018-04-15T23:34:02.641Z,13.70
2018-04-15T23:36:28.890Z,13.60
2018-04-15T23:38:55.064Z,13.60
2018-04-15T23:41:21.275Z,13.60
2018-04-15T23:43:48.179Z,13.50
2018-04-15T23:46:15.133Z,13.40
2018-04-15T23:48:41.403Z,13.30
2018-04-15T23:51:07.614Z,13.40
2018-04-15T23:53:33.839Z,13.30
2018-04-15T23:56:00.133Z,13.30
2018-04-15T23:58:26.289Z,13.30
